createdAt,value
2019-01-29T04:03:41.198Z,86.70
2019-01-29T04:06:32.647Z,87.30
2019-01-29T04:09:26.854Z,87.60
2019-01-29T04:12:17.945Z,87.70
2019-01-29T04:15:12.133Z,88.20
2019-01-29T04:18:03.369Z,87.90
2019-01-29T04:20:54.952Z,87.90
2019-01-29T04:23:47.726Z,88.00
2019-01-29T04:26:39.504Z,88.10
2019-01-29T04:29:32.273Z,88.10
2019-01-29T04:32:25.015Z,89.00
2019-01-29T04:35:18.555Z,88.40
2019-01-29T04:38:11.612Z,88.40
2019-01-29T04:41:02.753Z,88.30
2019-01-29T04:43:54.448Z,88.40
2019-01-29T04:46:46.674Z,88.40
2019-01-29T04:49:38.760Z,88.50
2019-01-29T04:52:29.810Z,88.50
2019-01-29T04:55:23.296Z,88.50
2019-01-29T04:58:14.789Z,88.10
2019-01-29T05:01:14.591Z,88.30
2019-01-29T05:04:12.158Z,88.10
2019-01-29T05:07:04.178Z,88.10
2019-01-29T05:09:56.008Z,88.20
2019-01-29T05:12:48.156Z,88.50
2019-01-29T05:15:40.941Z,88.20
2019-01-29T05:18:32.894Z,88.30
2019-01-29T05:21:25.467Z,88.30
2019-01-29T05:24:16.710Z,88.20
2019-01-29T05:27:09.454Z,88.20
2019-01-29T05:30:00.896Z,88.00
2019-01-29T05:32:55.877Z,87.90
2019-01-29T05:35:48.257Z,87.70
2019-01-29T05:38:43.718Z,87.80
2019-01-29T05:41:36.004Z,87.50
2019-01-29T05:44:29.464Z,87.60
2019-01-29T05:47:21.283Z,87.40
2019-01-29T05:50:13.274Z,87.40
2019-01-29T05:53:06.181Z,87.30
2019-01-29T05:56:01.619Z,87.40
2019-01-29T05:58:53.759Z,87.20
2019-01-29T06:12:57.099Z,86.20
2019-01-29T06:15:49.330Z,86.90
2019-01-29T06:18:42.411Z,87.00
2019-01-29T06:21:34.050Z,86.90
2019-01-29T06:24:26.197Z,86.90
2019-01-29T06:27:28.964Z,86.80
2019-01-29T06:30:32.565Z,86.80
2019-01-29T06:33:35.195Z,86.80
2019-01-29T06:36:27.079Z,86.90
2019-01-29T06:39:18.575Z,86.80
2019-01-29T06:42:10.322Z,86.80
2019-01-29T06:45:03.693Z,86.70
2019-01-29T06:47:57.564Z,86.70
2019-01-29T06:50:50.062Z,86.60
2019-01-29T06:53:41.735Z,85.90
2019-01-29T06:56:33.157Z,86.70
2019-01-29T06:59:27.047Z,86.60
2019-01-29T07:02:19.520Z,86.70
2019-01-29T07:05:11.314Z,86.60
2019-01-29T07:08:02.961Z,86.60
2019-01-29T07:10:55.078Z,86.50
2019-01-29T07:13:52.068Z,86.40
2019-01-29T07:28:19.522Z,85.90
2019-01-29T07:31:17.732Z,86.60
2019-01-29T07:34:12.758Z,86.60
2019-01-29T07:37:05.594Z,86.40
2019-01-29T07:39:57.776Z,86.50
2019-01-29T07:42:55.644Z,86.60
2019-01-29T07:45:47.997Z,86.30
2019-01-29T07:48:39.953Z,86.20
2019-01-29T07:51:32.272Z,85.90
2019-01-29T07:54:33.285Z,85.90
2019-01-29T07:57:30.149Z,85.90
2019-01-29T08:00:24.142Z,85.90
2019-01-29T08:03:24.613Z,85.60
2019-01-29T08:18:20.624Z,84.80
2019-01-29T08:21:15.982Z,85.40
2019-01-29T08:24:11.191Z,85.40
2019-01-29T08:27:03.219Z,85.30
2019-01-29T08:29:56.162Z,85.30
2019-01-29T08:32:56.200Z,85.20
2019-01-29T08:35:56.437Z,85.00
2019-01-29T08:38:48.942Z,84.80
2019-01-29T08:41:41.243Z,84.80
2019-01-29T08:44:32.829Z,84.60
2019-01-29T08:47:26.017Z,84.60
2019-01-29T08:50:20.676Z,84.50
2019-01-29T08:53:14.878Z,84.30
2019-01-29T08:56:07.366Z,84.40
2019-01-29T08:59:00.820Z,84.10
2019-01-29T09:01:53.454Z,84.00
2019-01-29T09:04:46.496Z,84.00
2019-01-29T09:07:38.465Z,84.20
2019-01-29T09:10:30.655Z,84.00
2019-01-29T09:13:24.742Z,83.80
2019-01-29T09:16:17.790Z,83.60
2019-01-29T09:19:10.941Z,83.50
2019-01-29T09:22:04.319Z,83.70
2019-01-29T09:24:58.193Z,83.40
2019-01-29T09:27:51.955Z,83.30
2019-01-29T09:30:45.109Z,83.20
2019-01-29T09:33:37.206Z,82.90
2019-01-29T09:36:34.910Z,82.80
2019-01-29T09:39:28.240Z,82.50
2019-01-29T09:42:20.700Z,82.50
2019-01-29T09:45:21.361Z,82.60
2019-01-29T09:48:15.511Z,83.40
2019-01-29T09:51:08.375Z,82.30
2019-01-29T09:54:03.448Z,82.20
2019-01-29T09:56:59.170Z,82.20
2019-01-29T09:59:51.673Z,82.10
2019-01-29T10:02:54.011Z,82.00
2019-01-29T10:05:49.394Z,82.10
2019-01-29T10:08:49.902Z,81.80
2019-01-29T10:11:44.229Z,81.80
2019-01-29T10:14:40.784Z,81.50
2019-01-29T10:17:40.218Z,81.50
2019-01-29T10:20:38.848Z,81.30
2019-01-29T10:23:40.853Z,81.80
2019-01-29T10:26:34.761Z,81.90
2019-01-29T10:29:35.714Z,81.80
2019-01-29T10:32:27.813Z,81.80
2019-01-29T10:35:20.544Z,81.50
2019-01-29T10:38:12.424Z,81.40
2019-01-29T10:41:05.408Z,81.10
2019-01-29T10:43:58.585Z,81.00
2019-01-29T10:46:51.729Z,81.10
2019-01-29T10:49:52.112Z,80.90
2019-01-29T10:52:44.877Z,80.80
2019-01-29T10:55:36.783Z,80.70
2019-01-29T10:58:28.316Z,80.80
2019-01-29T11:01:20.665Z,80.60
2019-01-29T11:04:12.208Z,80.60
2019-01-29T11:07:04.990Z,80.70
2019-01-29T11:09:57.445Z,80.70
2019-01-29T11:12:50.375Z,80.80
2019-01-29T11:15:43.718Z,81.10
2019-01-29T11:18:36.064Z,81.20
2019-01-29T11:21:28.916Z,80.80
2019-01-29T11:24:21.961Z,81.40
2019-01-29T11:27:14.929Z,80.90
2019-01-29T11:30:07.364Z,81.00
2019-01-29T11:33:08.590Z,81.20
2019-01-29T11:36:04.520Z,81.20
2019-01-29T11:38:56.339Z,81.10
2019-01-29T11:41:49.204Z,81.30
2019-01-29T11:44:42.294Z,81.50
2019-01-29T11:47:34.435Z,81.50
2019-01-29T11:50:27.970Z,81.50
2019-01-29T11:53:19.780Z,81.70
2019-01-29T11:56:12.104Z,81.70
2019-01-29T11:59:04.968Z,81.90
2019-01-29T13:04:54.873Z,80.40
2019-01-29T13:07:46.576Z,81.10
2019-01-29T13:10:39.046Z,80.80
2019-01-29T13:13:30.801Z,80.20
2019-01-29T13:16:23.052Z,80.40
2019-01-29T13:19:16.371Z,80.50
2019-01-29T13:22:08.160Z,80.10
2019-01-29T13:24:59.455Z,80.30
2019-01-29T13:27:52.883Z,80.00
2019-01-29T13:30:44.570Z,80.10
2019-01-29T13:33:37.648Z,79.80
2019-01-29T13:36:31.073Z,79.60
2019-01-29T13:39:23.810Z,79.60
2019-01-29T13:42:16.223Z,79.50
2019-01-29T13:45:08.531Z,79.80
2019-01-29T13:48:00.444Z,79.90
2019-01-29T13:50:53.422Z,79.90
2019-01-29T13:53:45.027Z,79.80
2019-01-29T13:56:38.978Z,80.50
2019-01-29T13:59:29.206Z,80.20
2019-01-29T14:02:28.948Z,80.00
2019-01-29T14:05:23.509Z,80.30
2019-01-29T14:08:32.155Z,80.30
2019-01-29T14:11:41.790Z,80.30
2019-01-29T14:14:43.058Z,80.30
2019-01-29T14:17:34.321Z,80.30
2019-01-29T14:20:26.318Z,80.30
2019-01-29T14:23:18.252Z,80.30
2019-01-29T14:26:10.288Z,80.00
2019-01-29T14:29:02.758Z,80.30
2019-01-29T14:31:56.740Z,80.10
2019-01-29T14:34:49.175Z,80.00
2019-01-29T14:37:59.921Z,79.90
2019-01-29T14:40:52.437Z,79.90
2019-01-29T14:43:48.347Z,79.90
2019-01-29T14:46:54.917Z,79.80
2019-01-29T14:49:47.802Z,79.70
2019-01-29T14:52:39.699Z,79.40
2019-01-29T14:55:40.582Z,79.40
2019-01-29T14:58:47.442Z,79.50
2019-01-29T15:01:44.474Z,79.60
2019-01-29T15:04:47.093Z,79.80
2019-01-29T15:07:47.010Z,79.60
2019-01-29T15:10:38.411Z,79.60
2019-01-29T15:13:30.245Z,79.50
2019-01-29T15:16:38.480Z,79.40
2019-01-29T15:19:31.387Z,79.40
2019-01-29T15:22:23.443Z,79.30
2019-01-29T15:25:15.056Z,79.40
2019-01-29T15:28:07.336Z,79.50
2019-01-29T15:30:58.947Z,79.60
2019-01-29T15:33:50.887Z,79.60
2019-01-29T15:36:44.160Z,79.70
2019-01-29T15:39:36.226Z,79.70
2019-01-29T15:42:29.833Z,79.70
2019-01-29T15:45:25.163Z,79.90
2019-01-29T15:48:26.523Z,79.80
2019-01-29T15:51:47.848Z,79.80
2019-01-29T15:54:48.175Z,79.60
2019-01-29T15:57:46.638Z,79.70
2019-01-29T16:00:41.385Z,79.80
2019-01-29T16:03:34.332Z,79.80
2019-01-29T16:06:31.031Z,79.80
2019-01-29T16:09:23.946Z,80.00
2019-01-29T16:12:17.658Z,80.10
2019-01-29T16:15:09.618Z,80.20
2019-01-29T16:18:01.139Z,80.30
2019-01-29T16:20:52.279Z,80.30
2019-01-29T16:23:45.454Z,80.20
2019-01-29T16:26:36.641Z,80.30
2019-01-29T16:29:27.933Z,80.30
2019-01-29T16:32:19.473Z,80.20
2019-01-29T16:35:10.847Z,80.10
2019-01-29T16:38:02.474Z,79.90
2019-01-29T16:41:00.426Z,79.80
2019-01-29T16:43:46.520Z,79.60
2019-01-29T16:46:37.779Z,79.50
2019-01-29T16:49:29.303Z,79.40
2019-01-29T16:52:21.197Z,79.30
2019-01-29T16:55:17.927Z,79.10
2019-01-29T16:58:11.637Z,78.80
2019-01-29T17:01:05.865Z,78.80
2019-01-29T17:03:57.387Z,78.40
2019-01-29T17:06:50.747Z,78.30
2019-01-29T17:09:42.546Z,78.40
2019-01-29T17:12:34.728Z,78.20
2019-01-29T17:15:27.688Z,78.10
2019-01-29T17:18:19.609Z,78.10
2019-01-29T17:21:10.866Z,78.00
2019-01-29T17:24:03.170Z,78.10
2019-01-29T17:26:55.149Z,78.20
2019-01-29T17:29:48.881Z,78.20
2019-01-29T17:32:40.052Z,78.20
2019-01-29T17:35:31.750Z,78.20
2019-01-29T17:38:23.162Z,78.10
2019-01-29T17:41:15.629Z,77.90
2019-01-29T17:44:11.927Z,77.70
2019-01-29T17:47:10.111Z,77.50
2019-01-29T17:50:05.871Z,77.40
2019-01-29T17:53:02.535Z,77.20
2019-01-29T17:59:15.883Z,77.40
2019-01-29T18:02:20.716Z,76.70
2019-01-29T18:05:14.807Z,76.80
2019-01-29T18:08:09.840Z,76.90
2019-01-29T18:11:01.130Z,76.90
2019-01-29T18:13:52.522Z,76.90
2019-01-29T18:16:43.687Z,76.90
2019-01-29T18:19:34.778Z,77.00
2019-01-29T18:22:26.718Z,77.10
2019-01-29T18:25:18.903Z,77.00
2019-01-29T18:28:10.765Z,77.30
2019-01-29T18:31:01.979Z,76.80
2019-01-29T18:33:53.556Z,76.80
2019-01-29T18:36:47.172Z,76.60
2019-01-29T18:39:39.047Z,76.50
2019-01-29T18:42:30.156Z,76.40
2019-01-29T18:45:21.831Z,76.10
2019-01-29T18:48:13.335Z,75.90
2019-01-29T18:51:04.777Z,75.50
2019-01-29T18:53:56.048Z,75.20
2019-01-29T18:56:47.414Z,74.90
2019-01-29T18:59:39.307Z,74.90
2019-01-29T19:02:30.815Z,74.70
2019-01-29T19:05:21.798Z,74.70
2019-01-29T19:08:13.750Z,74.60
2019-01-29T19:11:07.671Z,74.60
2019-01-29T19:13:58.145Z,74.70
2019-01-29T19:16:49.514Z,74.70
2019-01-29T19:19:40.973Z,74.70
2019-01-29T19:22:32.185Z,74.70
2019-01-29T19:25:23.591Z,74.70
2019-01-29T19:28:21.763Z,74.40
2019-01-29T19:31:09.335Z,74.40
2019-01-29T19:34:00.791Z,74.20
2019-01-29T19:36:52.935Z,74.10
2019-01-29T19:39:44.427Z,73.70
2019-01-29T19:42:36.180Z,73.40
2019-01-29T19:45:28.665Z,73.30
2019-01-29T19:48:23.426Z,73.10
2019-01-29T19:51:14.905Z,73.00
2019-01-29T19:54:08.654Z,73.10
2019-01-29T19:57:02.604Z,72.70
2019-01-29T19:59:54.978Z,72.60
2019-01-29T20:02:46.591Z,72.50
2019-01-29T20:05:38.446Z,72.30
2019-01-29T20:08:36.680Z,72.10
2019-01-29T20:11:28.387Z,71.80
2019-01-29T20:14:19.677Z,71.40
2019-01-29T20:17:11.601Z,71.10
2019-01-29T20:20:04.499Z,70.80
2019-01-29T20:22:56.044Z,70.80
2019-01-29T20:25:47.439Z,70.80
2019-01-29T20:28:42.446Z,70.80
2019-01-29T20:31:31.383Z,70.70
2019-01-29T20:34:23.128Z,70.80
2019-01-29T20:37:14.567Z,70.60
2019-01-29T20:40:05.975Z,70.60
2019-01-29T20:42:57.360Z,70.50
2019-01-29T20:45:49.130Z,70.60
2019-01-29T20:48:40.685Z,70.60
2019-01-29T20:51:32.225Z,70.30
2019-01-29T20:54:24.090Z,70.30
2019-01-29T20:57:15.473Z,70.00
2019-01-29T21:00:07.685Z,70.00
2019-01-29T21:02:59.039Z,70.00
2019-01-29T21:05:50.173Z,69.80
2019-01-29T21:08:42.341Z,69.70
2019-01-29T21:11:34.301Z,69.50
2019-01-29T21:14:26.441Z,69.20
2019-01-29T21:17:17.364Z,69.00
2019-01-29T21:20:09.183Z,68.70
2019-01-29T21:23:00.475Z,68.50
2019-01-29T21:25:52.267Z,68.30
2019-01-29T21:28:43.726Z,68.00
2019-01-29T21:31:35.089Z,67.90
2019-01-29T21:34:26.307Z,68.20
2019-01-29T21:37:18.158Z,67.90
2019-01-29T21:40:10.315Z,67.90
2019-01-29T21:43:01.720Z,68.10
2019-01-29T21:45:53.210Z,68.20
2019-01-29T21:48:44.838Z,69.10
2019-01-29T21:51:35.934Z,68.10
2019-01-29T21:54:27.445Z,68.10
2019-01-29T21:57:18.840Z,67.90
2019-01-29T22:00:12.079Z,68.00
2019-01-29T22:03:03.673Z,67.90
2019-01-29T22:05:55.361Z,68.00
2019-01-29T22:08:46.942Z,67.90
2019-01-29T22:11:42.130Z,68.00
2019-01-29T22:14:33.664Z,68.00
2019-01-29T22:17:24.983Z,67.90
2019-01-29T22:20:18.018Z,68.00
2019-01-29T22:23:09.420Z,68.00
2019-01-29T22:26:00.757Z,67.70
2019-01-29T22:28:52.264Z,67.70
2019-01-29T22:31:43.328Z,67.60
2019-01-29T22:34:34.467Z,67.60
2019-01-29T22:37:26.010Z,67.60
2019-01-29T22:40:26.953Z,67.40
2019-01-29T22:43:18.386Z,67.30
2019-01-29T22:46:10.157Z,66.90
2019-01-29T22:49:01.268Z,66.80
2019-01-29T22:51:52.632Z,66.80
2019-01-29T22:54:44.019Z,66.60
2019-01-29T22:57:35.659Z,66.40
2019-01-29T23:00:58.614Z,66.50
2019-01-29T23:03:51.713Z,66.60
2019-01-29T23:06:48.958Z,66.50
2019-01-29T23:09:40.389Z,66.30
2019-01-29T23:12:31.767Z,66.30
2019-01-29T23:15:23.208Z,66.30
2019-01-29T23:18:14.346Z,66.40
2019-01-29T23:21:06.107Z,66.30
2019-01-29T23:23:57.217Z,66.20
2019-01-29T23:26:48.979Z,66.10
2019-01-29T23:29:43.519Z,66.10
2019-01-29T23:32:32.862Z,66.10
2019-01-29T23:35:24.270Z,66.00
2019-01-29T23:38:15.936Z,65.70
2019-01-29T23:41:07.353Z,65.50
2019-01-29T23:43:58.628Z,65.70
2019-01-29T23:46:50.022Z,65.70
2019-01-29T23:49:41.384Z,65.80
2019-01-29T23:52:32.793Z,65.80
2019-01-29T23:55:24.194Z,65.80
2019-01-29T23:58:15.340Z,65.70
